sensor_id;sensor_type;location;lat;lon;timestamp;temperature;humidity
24217;DHT22;12356;49.386;8.688;2023-09-19T00:01:07;19.30;42.90
24217;DHT22;12356;49.386;8.688;2023-09-19T00:03:42;19.20;43.40
24217;DHT22;12356;49.386;8.688;2023-09-19T00:06:12;19.30;42.90
24217;DHT22;12356;49.386;8.688;2023-09-19T00:08:46;19.30;43.30
24217;DHT22;12356;49.386;8.688;2023-09-19T00:11:18;19.20;43.10
24217;DHT22;12356;49.386;8.688;2023-09-19T00:13:48;19.20;43.70
24217;DHT22;12356;49.386;8.688;2023-09-19T00:16:20;19.20;43.60
24217;DHT22;12356;49.386;8.688;2023-09-19T00:18:51;19.20;44.20
24217;DHT22;12356;49.386;8.688;2023-09-19T00:21:22;19.20;44.10
24217;DHT22;12356;49.386;8.688;2023-09-19T00:23:53;19.20;44.80
24217;DHT22;12356;49.386;8.688;2023-09-19T00:26:24;19.20;45.00
24217;DHT22;12356;49.386;8.688;2023-09-19T00:28:54;19.20;44.60
24217;DHT22;12356;49.386;8.688;2023-09-19T00:31:27;19.30;45.20
24217;DHT22;12356;49.386;8.688;2023-09-19T00:34:00;19.20;45.30
24217;DHT22;12356;49.386;8.688;2023-09-19T00:36:34;19.20;46.20
24217;DHT22;12356;49.386;8.688;2023-09-19T00:39:05;19.20;45.40
24217;DHT22;12356;49.386;8.688;2023-09-19T00:41:36;19.20;45.80
24217;DHT22;12356;49.386;8.688;2023-09-19T00:44:07;19.10;45.90
24217;DHT22;12356;49.386;8.688;2023-09-19T00:46:37;19.20;46.40
24217;DHT22;12356;49.386;8.688;2023-09-19T00:49:08;19.20;47.50
24217;DHT22;12356;49.386;8.688;2023-09-19T00:51:39;19.20;46.90
24217;DHT22;12356;49.386;8.688;2023-09-19T00:54:16;19.20;46.70
24217;DHT22;12356;49.386;8.688;2023-09-19T00:56:48;19.20;46.60
24217;DHT22;12356;49.386;8.688;2023-09-19T00:59:21;19.20;46.80
24217;DHT22;12356;49.386;8.688;2023-09-19T01:01:53;19.20;47.40
24217;DHT22;12356;49.386;8.688;2023-09-19T01:04:25;19.10;47.90
24217;DHT22;12356;49.386;8.688;2023-09-19T01:06:55;19.10;48.30
24217;DHT22;12356;49.386;8.688;2023-09-19T01:09:26;19.10;48.20
24217;DHT22;12356;49.386;8.688;2023-09-19T01:12:01;19.10;48.20
24217;DHT22;12356;49.386;8.688;2023-09-19T01:14:48;19.10;48.80
24217;DHT22;12356;49.386;8.688;2023-09-19T01:17:25;19.10;48.40
24217;DHT22;12356;49.386;8.688;2023-09-19T01:20:15;19.10;48.90
24217;DHT22;12356;49.386;8.688;2023-09-19T01:31:45;19.10;49.30
24217;DHT22;12356;49.386;8.688;2023-09-19T01:34:15;19.10;49.60
24217;DHT22;12356;49.386;8.688;2023-09-19T01:36:46;19.10;49.50
24217;DHT22;12356;49.386;8.688;2023-09-19T01:39:16;19.10;49.70
24217;DHT22;12356;49.386;8.688;2023-09-19T01:41:59;19.10;49.70
24217;DHT22;12356;49.386;8.688;2023-09-19T01:44:45;19.10;49.50
24217;DHT22;12356;49.386;8.688;2023-09-19T01:47:38;19.10;49.80
24217;DHT22;12356;49.386;8.688;2023-09-19T01:50:37;19.10;50.20
24217;DHT22;12356;49.386;8.688;2023-09-19T01:53:19;19.00;50.10
24217;DHT22;12356;49.386;8.688;2023-09-19T01:55:52;19.00;50.30
24217;DHT22;12356;49.386;8.688;2023-09-19T01:58:40;19.00;50.30
24217;DHT22;12356;49.386;8.688;2023-09-19T02:01:19;19.00;50.60
24217;DHT22;12356;49.386;8.688;2023-09-19T02:03:50;19.00;50.60
24217;DHT22;12356;49.386;8.688;2023-09-19T02:06:21;19.00;50.40
24217;DHT22;12356;49.386;8.688;2023-09-19T02:08:51;19.00;50.50
24217;DHT22;12356;49.386;8.688;2023-09-19T02:11:22;19.00;50.30
24217;DHT22;12356;49.386;8.688;2023-09-19T02:13:53;19.00;50.50
24217;DHT22;12356;49.386;8.688;2023-09-19T02:16:24;18.90;50.50
24217;DHT22;12356;49.386;8.688;2023-09-19T02:18:55;19.00;50.90
24217;DHT22;12356;49.386;8.688;2023-09-19T02:21:26;19.00;50.30
24217;DHT22;12356;49.386;8.688;2023-09-19T02:23:59;19.00;50.40
24217;DHT22;12356;49.386;8.688;2023-09-19T02:26:30;19.00;51.00
24217;DHT22;12356;49.386;8.688;2023-09-19T02:29:00;18.90;50.60
24217;DHT22;12356;49.386;8.688;2023-09-19T02:31:32;18.90;50.80
24217;DHT22;12356;49.386;8.688;2023-09-19T02:34:02;19.00;50.30
24217;DHT22;12356;49.386;8.688;2023-09-19T02:36:33;19.00;50.30
24217;DHT22;12356;49.386;8.688;2023-09-19T02:39:03;18.90;49.90
24217;DHT22;12356;49.386;8.688;2023-09-19T02:41:36;19.00;49.90
24217;DHT22;12356;49.386;8.688;2023-09-19T02:44:07;19.00;49.80
24217;DHT22;12356;49.386;8.688;2023-09-19T02:46:38;19.00;50.00
24217;DHT22;12356;49.386;8.688;2023-09-19T02:49:08;19.10;49.90
24217;DHT22;12356;49.386;8.688;2023-09-19T02:51:39;19.00;49.60
24217;DHT22;12356;49.386;8.688;2023-09-19T02:54:10;19.00;49.40
24217;DHT22;12356;49.386;8.688;2023-09-19T02:56:41;19.00;49.20
24217;DHT22;12356;49.386;8.688;2023-09-19T02:59:12;19.00;49.50
24217;DHT22;12356;49.386;8.688;2023-09-19T03:01:43;19.00;49.60
24217;DHT22;12356;49.386;8.688;2023-09-19T03:04:14;19.00;49.50
24217;DHT22;12356;49.386;8.688;2023-09-19T03:06:50;19.00;49.80
24217;DHT22;12356;49.386;8.688;2023-09-19T03:09:21;19.00;50.00
24217;DHT22;12356;49.386;8.688;2023-09-19T03:11:53;19.00;50.20
24217;DHT22;12356;49.386;8.688;2023-09-19T03:14:24;19.00;50.10
24217;DHT22;12356;49.386;8.688;2023-09-19T03:16:55;19.00;49.80
24217;DHT22;12356;49.386;8.688;2023-09-19T03:19:26;19.10;49.80
24217;DHT22;12356;49.386;8.688;2023-09-19T03:21:56;19.10;49.50
24217;DHT22;12356;49.386;8.688;2023-09-19T03:24:28;19.10;49.70
24217;DHT22;12356;49.386;8.688;2023-09-19T03:26:59;19.10;48.90
24217;DHT22;12356;49.386;8.688;2023-09-19T03:29:30;19.10;48.50
24217;DHT22;12356;49.386;8.688;2023-09-19T03:32:00;19.10;48.80
24217;DHT22;12356;49.386;8.688;2023-09-19T03:34:32;19.10;48.60
24217;DHT22;12356;49.386;8.688;2023-09-19T03:37:02;19.00;48.70
24217;DHT22;12356;49.386;8.688;2023-09-19T03:39:34;19.00;49.00
24217;DHT22;12356;49.386;8.688;2023-09-19T03:42:04;19.00;48.20
24217;DHT22;12356;49.386;8.688;2023-09-19T03:44:35;19.00;48.50
24217;DHT22;12356;49.386;8.688;2023-09-19T03:47:06;19.00;48.50
24217;DHT22;12356;49.386;8.688;2023-09-19T03:49:37;19.00;48.70
24217;DHT22;12356;49.386;8.688;2023-09-19T03:52:07;19.00;48.60
24217;DHT22;12356;49.386;8.688;2023-09-19T03:54:38;19.00;48.50
24217;DHT22;12356;49.386;8.688;2023-09-19T03:57:11;19.00;48.20
24217;DHT22;12356;49.386;8.688;2023-09-19T03:59:46;19.00;47.20
24217;DHT22;12356;49.386;8.688;2023-09-19T04:02:17;19.10;47.40
24217;DHT22;12356;49.386;8.688;2023-09-19T04:04:52;19.10;47.30
24217;DHT22;12356;49.386;8.688;2023-09-19T04:07:23;19.00;46.80
24217;DHT22;12356;49.386;8.688;2023-09-19T04:09:53;19.00;46.40
24217;DHT22;12356;49.386;8.688;2023-09-19T04:12:24;19.00;46.10
24217;DHT22;12356;49.386;8.688;2023-09-19T04:14:54;19.00;46.30
24217;DHT22;12356;49.386;8.688;2023-09-19T04:17:25;19.00;46.50
24217;DHT22;12356;49.386;8.688;2023-09-19T04:19:56;19.00;46.10
24217;DHT22;12356;49.386;8.688;2023-09-19T04:22:26;19.00;45.40
24217;DHT22;12356;49.386;8.688;2023-09-19T04:24:57;19.00;45.10
24217;DHT22;12356;49.386;8.688;2023-09-19T04:27:27;18.90;45.80
24217;DHT22;12356;49.386;8.688;2023-09-19T04:29:58;18.90;45.90
24217;DHT22;12356;49.386;8.688;2023-09-19T04:32:29;18.80;46.00
24217;DHT22;12356;49.386;8.688;2023-09-19T04:35:00;18.80;46.10
24217;DHT22;12356;49.386;8.688;2023-09-19T04:37:30;18.80;45.70
24217;DHT22;12356;49.386;8.688;2023-09-19T04:40:01;18.70;46.30
24217;DHT22;12356;49.386;8.688;2023-09-19T04:42:34;18.70;46.30
24217;DHT22;12356;49.386;8.688;2023-09-19T04:45:05;18.70;46.90
24217;DHT22;12356;49.386;8.688;2023-09-19T04:47:37;18.70;46.90
24217;DHT22;12356;49.386;8.688;2023-09-19T04:50:09;18.70;46.20
24217;DHT22;12356;49.386;8.688;2023-09-19T04:52:44;18.70;46.10
24217;DHT22;12356;49.386;8.688;2023-09-19T04:55:15;18.70;45.70
24217;DHT22;12356;49.386;8.688;2023-09-19T04:57:48;18.60;45.70
24217;DHT22;12356;49.386;8.688;2023-09-19T05:00:20;18.60;46.20
24217;DHT22;12356;49.386;8.688;2023-09-19T05:02:56;18.60;47.50
24217;DHT22;12356;49.386;8.688;2023-09-19T05:05:27;18.60;46.50
24217;DHT22;12356;49.386;8.688;2023-09-19T05:07:59;18.50;46.70
24217;DHT22;12356;49.386;8.688;2023-09-19T05:10:29;18.50;47.30
24217;DHT22;12356;49.386;8.688;2023-09-19T05:13:00;18.50;47.10
24217;DHT22;12356;49.386;8.688;2023-09-19T05:15:31;18.40;47.20
24217;DHT22;12356;49.386;8.688;2023-09-19T05:18:01;18.40;47.70
24217;DHT22;12356;49.386;8.688;2023-09-19T05:20:34;18.40;48.00
24217;DHT22;12356;49.386;8.688;2023-09-19T05:23:07;18.40;47.60
24217;DHT22;12356;49.386;8.688;2023-09-19T05:25:41;18.40;47.70
24217;DHT22;12356;49.386;8.688;2023-09-19T05:28:13;18.40;48.40
24217;DHT22;12356;49.386;8.688;2023-09-19T05:30:45;18.40;49.10
24217;DHT22;12356;49.386;8.688;2023-09-19T05:33:17;18.30;49.40
24217;DHT22;12356;49.386;8.688;2023-09-19T05:35:48;18.40;50.30
24217;DHT22;12356;49.386;8.688;2023-09-19T05:38:19;18.40;50.70
24217;DHT22;12356;49.386;8.688;2023-09-19T05:40:50;18.30;51.40
24217;DHT22;12356;49.386;8.688;2023-09-19T05:43:21;18.30;51.50
24217;DHT22;12356;49.386;8.688;2023-09-19T05:45:51;18.40;51.90
24217;DHT22;12356;49.386;8.688;2023-09-19T05:48:22;18.40;51.70
24217;DHT22;12356;49.386;8.688;2023-09-19T05:50:53;18.40;50.90
24217;DHT22;12356;49.386;8.688;2023-09-19T05:53:23;18.40;49.50
24217;DHT22;12356;49.386;8.688;2023-09-19T05:55:54;18.40;47.90
24217;DHT22;12356;49.386;8.688;2023-09-19T05:58:25;18.40;47.90
24217;DHT22;12356;49.386;8.688;2023-09-19T06:00:56;18.50;47.00
24217;DHT22;12356;49.386;8.688;2023-09-19T06:03:27;18.40;45.70
24217;DHT22;12356;49.386;8.688;2023-09-19T06:05:59;18.40;43.60
24217;DHT22;12356;49.386;8.688;2023-09-19T06:08:30;18.50;42.90
24217;DHT22;12356;49.386;8.688;2023-09-19T06:11:01;18.50;42.60
24217;DHT22;12356;49.386;8.688;2023-09-19T06:13:32;18.50;41.80
24217;DHT22;12356;49.386;8.688;2023-09-19T06:16:03;18.50;41.90
24217;DHT22;12356;49.386;8.688;2023-09-19T06:18:35;18.50;41.30
24217;DHT22;12356;49.386;8.688;2023-09-19T06:21:06;18.50;41.10
24217;DHT22;12356;49.386;8.688;2023-09-19T06:23:37;18.50;41.20
24217;DHT22;12356;49.386;8.688;2023-09-19T06:26:08;18.50;40.40
24217;DHT22;12356;49.386;8.688;2023-09-19T06:28:40;18.50;39.20
24217;DHT22;12356;49.386;8.688;2023-09-19T06:31:11;18.50;38.50
24217;DHT22;12356;49.386;8.688;2023-09-19T06:33:43;18.50;38.70
24217;DHT22;12356;49.386;8.688;2023-09-19T06:36:13;18.60;39.00
24217;DHT22;12356;49.386;8.688;2023-09-19T06:38:44;18.70;39.10
24217;DHT22;12356;49.386;8.688;2023-09-19T06:41:14;18.60;36.70
24217;DHT22;12356;49.386;8.688;2023-09-19T06:43:47;18.60;35.80
24217;DHT22;12356;49.386;8.688;2023-09-19T06:46:18;18.60;35.20
24217;DHT22;12356;49.386;8.688;2023-09-19T06:48:49;18.60;33.40
24217;DHT22;12356;49.386;8.688;2023-09-19T06:51:20;18.70;33.60
24217;DHT22;12356;49.386;8.688;2023-09-19T06:53:50;18.60;32.40
24217;DHT22;12356;49.386;8.688;2023-09-19T06:56:24;18.70;33.00
24217;DHT22;12356;49.386;8.688;2023-09-19T06:58:56;18.70;33.60
24217;DHT22;12356;49.386;8.688;2023-09-19T07:01:26;18.70;33.10
24217;DHT22;12356;49.386;8.688;2023-09-19T07:03:57;18.70;32.60
24217;DHT22;12356;49.386;8.688;2023-09-19T07:06:28;18.70;32.60
24217;DHT22;12356;49.386;8.688;2023-09-19T07:08:58;18.70;32.90
24217;DHT22;12356;49.386;8.688;2023-09-19T07:11:29;18.70;32.50
24217;DHT22;12356;49.386;8.688;2023-09-19T07:14:01;18.70;33.70
24217;DHT22;12356;49.386;8.688;2023-09-19T07:16:33;18.70;32.70
24217;DHT22;12356;49.386;8.688;2023-09-19T07:19:04;18.70;32.80
24217;DHT22;12356;49.386;8.688;2023-09-19T07:21:34;18.70;31.60
24217;DHT22;12356;49.386;8.688;2023-09-19T07:24:09;18.70;31.60
24217;DHT22;12356;49.386;8.688;2023-09-19T07:26:39;18.70;30.70
24217;DHT22;12356;49.386;8.688;2023-09-19T07:29:10;18.80;30.60
24217;DHT22;12356;49.386;8.688;2023-09-19T07:31:40;18.80;30.90
24217;DHT22;12356;49.386;8.688;2023-09-19T07:34:12;18.90;28.70
24217;DHT22;12356;49.386;8.688;2023-09-19T07:36:44;18.90;28.70
24217;DHT22;12356;49.386;8.688;2023-09-19T07:39:14;18.90;28.40
24217;DHT22;12356;49.386;8.688;2023-09-19T07:41:45;18.90;26.90
24217;DHT22;12356;49.386;8.688;2023-09-19T07:44:16;18.90;25.40
24217;DHT22;12356;49.386;8.688;2023-09-19T07:46:47;18.90;26.40
24217;DHT22;12356;49.386;8.688;2023-09-19T07:49:21;19.00;27.10
24217;DHT22;12356;49.386;8.688;2023-09-19T07:51:51;19.00;27.60
24217;DHT22;12356;49.386;8.688;2023-09-19T07:54:25;19.00;24.40
24217;DHT22;12356;49.386;8.688;2023-09-19T07:56:55;19.10;23.40
24217;DHT22;12356;49.386;8.688;2023-09-19T07:59:26;19.20;24.90
24217;DHT22;12356;49.386;8.688;2023-09-19T08:01:57;19.10;23.20
24217;DHT22;12356;49.386;8.688;2023-09-19T08:04:28;19.20;22.50
24217;DHT22;12356;49.386;8.688;2023-09-19T08:07:00;19.20;21.20
24217;DHT22;12356;49.386;8.688;2023-09-19T08:09:34;19.20;22.50
24217;DHT22;12356;49.386;8.688;2023-09-19T08:12:07;19.20;20.10
24217;DHT22;12356;49.386;8.688;2023-09-19T08:14:40;19.20;20.20
24217;DHT22;12356;49.386;8.688;2023-09-19T08:17:14;19.20;20.30
24217;DHT22;12356;49.386;8.688;2023-09-19T08:19:45;19.20;20.40
24217;DHT22;12356;49.386;8.688;2023-09-19T08:22:16;19.30;21.50
24217;DHT22;12356;49.386;8.688;2023-09-19T08:24:47;19.40;22.10
24217;DHT22;12356;49.386;8.688;2023-09-19T08:27:18;19.30;19.50
24217;DHT22;12356;49.386;8.688;2023-09-19T08:29:49;19.30;20.60
24217;DHT22;12356;49.386;8.688;2023-09-19T08:32:22;19.30;20.60
24217;DHT22;12356;49.386;8.688;2023-09-19T08:34:54;19.40;19.60
24217;DHT22;12356;49.386;8.688;2023-09-19T08:37:25;19.40;20.40
24217;DHT22;12356;49.386;8.688;2023-09-19T08:39:55;19.40;19.50
24217;DHT22;12356;49.386;8.688;2023-09-19T08:42:26;19.40;18.10
24217;DHT22;12356;49.386;8.688;2023-09-19T08:44:58;19.40;16.50
24217;DHT22;12356;49.386;8.688;2023-09-19T08:47:38;19.40;14.20
24217;DHT22;12356;49.386;8.688;2023-09-19T08:50:28;19.40;15.90
24217;DHT22;12356;49.386;8.688;2023-09-19T08:53:01;19.40;13.90
24217;DHT22;12356;49.386;8.688;2023-09-19T08:55:37;19.50;13.80
24217;DHT22;12356;49.386;8.688;2023-09-19T08:58:10;19.50;13.10
24217;DHT22;12356;49.386;8.688;2023-09-19T09:00:41;19.40;14.20
24217;DHT22;12356;49.386;8.688;2023-09-19T09:03:14;19.40;15.70
24217;DHT22;12356;49.386;8.688;2023-09-19T09:05:46;19.40;15.70
24217;DHT22;12356;49.386;8.688;2023-09-19T09:08:19;19.40;15.40
24217;DHT22;12356;49.386;8.688;2023-09-19T09:10:51;19.50;15.60
24217;DHT22;12356;49.386;8.688;2023-09-19T09:13:21;19.50;13.20
24217;DHT22;12356;49.386;8.688;2023-09-19T09:15:55;19.50;15.10
24217;DHT22;12356;49.386;8.688;2023-09-19T09:18:25;19.60;14.20
24217;DHT22;12356;49.386;8.688;2023-09-19T09:20:56;19.60;13.40
24217;DHT22;12356;49.386;8.688;2023-09-19T09:23:27;19.60;12.90
24217;DHT22;12356;49.386;8.688;2023-09-19T09:26:02;19.60;14.10
24217;DHT22;12356;49.386;8.688;2023-09-19T09:28:34;19.60;13.50
24217;DHT22;12356;49.386;8.688;2023-09-19T09:31:05;19.60;13.40
24217;DHT22;12356;49.386;8.688;2023-09-19T09:33:39;19.70;12.70
24217;DHT22;12356;49.386;8.688;2023-09-19T09:36:11;19.70;11.90
24217;DHT22;12356;49.386;8.688;2023-09-19T09:38:47;19.70;10.30
24217;DHT22;12356;49.386;8.688;2023-09-19T09:41:18;19.80;9.30
24217;DHT22;12356;49.386;8.688;2023-09-19T09:44:16;19.80;8.20
24217;DHT22;12356;49.386;8.688;2023-09-19T09:46:48;19.90;8.70
24217;DHT22;12356;49.386;8.688;2023-09-19T09:49:26;19.90;9.10
24217;DHT22;12356;49.386;8.688;2023-09-19T09:52:06;19.90;9.30
24217;DHT22;12356;49.386;8.688;2023-09-19T09:55:00;19.90;8.40
24217;DHT22;12356;49.386;8.688;2023-09-19T09:57:35;19.90;7.10
24217;DHT22;12356;49.386;8.688;2023-09-19T10:00:06;19.90;7.20
24217;DHT22;12356;49.386;8.688;2023-09-19T10:02:43;20.00;8.40
24217;DHT22;12356;49.386;8.688;2023-09-19T10:05:17;20.10;7.30
24217;DHT22;12356;49.386;8.688;2023-09-19T10:07:51;20.20;6.20
24217;DHT22;12356;49.386;8.688;2023-09-19T10:10:36;20.20;5.30
24217;DHT22;12356;49.386;8.688;2023-09-19T10:13:16;20.30;7.50
24217;DHT22;12356;49.386;8.688;2023-09-19T10:15:52;20.40;5.20
24217;DHT22;12356;49.386;8.688;2023-09-19T10:18:26;20.50;7.60
24217;DHT22;12356;49.386;8.688;2023-09-19T10:20:59;20.50;7.50
24217;DHT22;12356;49.386;8.688;2023-09-19T10:23:30;20.50;4.90
24217;DHT22;12356;49.386;8.688;2023-09-19T10:26:05;20.50;2.90
24217;DHT22;12356;49.386;8.688;2023-09-19T10:28:37;20.50;2.00
24217;DHT22;12356;49.386;8.688;2023-09-19T10:31:09;20.40;1.80
24217;DHT22;12356;49.386;8.688;2023-09-19T10:33:44;20.40;3.20
24217;DHT22;12356;49.386;8.688;2023-09-19T10:36:16;20.50;4.70
24217;DHT22;12356;49.386;8.688;2023-09-19T10:38:50;20.50;1.50
24217;DHT22;12356;49.386;8.688;2023-09-19T10:41:22;20.50;1.10
24217;DHT22;12356;49.386;8.688;2023-09-19T10:43:53;20.50;2.30
24217;DHT22;12356;49.386;8.688;2023-09-19T10:46:25;20.50;2.80
24217;DHT22;12356;49.386;8.688;2023-09-19T10:49:02;20.50;2.00
24217;DHT22;12356;49.386;8.688;2023-09-19T10:51:39;20.50;1.30
24217;DHT22;12356;49.386;8.688;2023-09-19T10:54:13;20.40;3.30
24217;DHT22;12356;49.386;8.688;2023-09-19T10:56:49;20.40;3.20
24217;DHT22;12356;49.386;8.688;2023-09-19T10:59:22;20.40;2.80
24217;DHT22;12356;49.386;8.688;2023-09-19T11:01:56;20.50;2.80
24217;DHT22;12356;49.386;8.688;2023-09-19T11:04:32;20.50;2.00
24217;DHT22;12356;49.386;8.688;2023-09-19T11:07:08;20.60;1.00
24217;DHT22;12356;49.386;8.688;2023-09-19T11:09:52;20.70;1.00
24217;DHT22;12356;49.386;8.688;2023-09-19T11:15:03;20.80;1.00
24217;DHT22;12356;49.386;8.688;2023-09-19T11:17:39;20.90;1.00
24217;DHT22;12356;49.386;8.688;2023-09-19T11:30:53;21.10;1.00
24217;DHT22;12356;49.386;8.688;2023-09-19T11:33:31;21.20;1.00
24217;DHT22;12356;49.386;8.688;2023-09-19T11:46:33;21.20;1.00
24217;DHT22;12356;49.386;8.688;2023-09-19T11:49:06;21.30;1.00
24217;DHT22;12356;49.386;8.688;2023-09-19T11:51:43;21.20;1.00
24217;DHT22;12356;49.386;8.688;2023-09-19T11:54:15;21.30;1.00
24217;DHT22;12356;49.386;8.688;2023-09-19T11:56:52;21.30;1.00
24217;DHT22;12356;49.386;8.688;2023-09-19T11:59:25;21.40;1.00
24217;DHT22;12356;49.386;8.688;2023-09-19T12:02:01;21.40;1.00
24217;DHT22;12356;49.386;8.688;2023-09-19T12:07:10;21.40;1.00
24217;DHT22;12356;49.386;8.688;2023-09-19T12:09:47;21.50;1.00
24217;DHT22;12356;49.386;8.688;2023-09-19T12:12:24;21.50;1.00
24217;DHT22;12356;49.386;8.688;2023-09-19T12:14:57;21.50;1.00
24217;DHT22;12356;49.386;8.688;2023-09-19T12:17:39;21.50;1.00
24217;DHT22;12356;49.386;8.688;2023-09-19T12:20:11;21.50;1.00
24217;DHT22;12356;49.386;8.688;2023-09-19T12:22:45;21.60;1.00
24217;DHT22;12356;49.386;8.688;2023-09-19T12:25:16;21.60;1.00
24217;DHT22;12356;49.386;8.688;2023-09-19T12:27:49;21.50;1.00
24217;DHT22;12356;49.386;8.688;2023-09-19T12:30:28;21.50;1.00
24217;DHT22;12356;49.386;8.688;2023-09-19T12:32:58;21.60;1.00
24217;DHT22;12356;49.386;8.688;2023-09-19T12:35:33;21.60;1.00
24217;DHT22;12356;49.386;8.688;2023-09-19T12:38:07;21.70;1.00
24217;DHT22;12356;49.386;8.688;2023-09-19T12:40:39;21.80;1.00
24217;DHT22;12356;49.386;8.688;2023-09-19T12:43:13;21.90;1.00
24217;DHT22;12356;49.386;8.688;2023-09-19T12:45:45;21.90;1.00
24217;DHT22;12356;49.386;8.688;2023-09-19T12:48:24;21.90;1.00
24217;DHT22;12356;49.386;8.688;2023-09-19T12:51:06;21.90;1.00
24217;DHT22;12356;49.386;8.688;2023-09-19T12:56:14;22.00;1.00
24217;DHT22;12356;49.386;8.688;2023-09-19T13:01:20;22.00;1.00
24217;DHT22;12356;49.386;8.688;2023-09-19T13:04:18;22.00;1.00
24217;DHT22;12356;49.386;8.688;2023-09-19T13:06:50;22.10;1.00
24217;DHT22;12356;49.386;8.688;2023-09-19T13:09:22;22.10;1.00
24217;DHT22;12356;49.386;8.688;2023-09-19T13:12:02;22.10;1.00
24217;DHT22;12356;49.386;8.688;2023-09-19T13:14:33;22.20;1.00
24217;DHT22;12356;49.386;8.688;2023-09-19T13:17:10;22.20;1.00
24217;DHT22;12356;49.386;8.688;2023-09-19T13:19:48;22.30;1.00
24217;DHT22;12356;49.386;8.688;2023-09-19T13:27:52;22.30;1.00
24217;DHT22;12356;49.386;8.688;2023-09-19T13:30:26;22.40;1.00
24217;DHT22;12356;49.386;8.688;2023-09-19T13:33:10;22.40;1.00
24217;DHT22;12356;49.386;8.688;2023-09-19T13:35:41;22.40;1.00
24217;DHT22;12356;49.386;8.688;2023-09-19T13:38:12;22.40;1.00
24217;DHT22;12356;49.386;8.688;2023-09-19T13:40:43;22.40;1.00
24217;DHT22;12356;49.386;8.688;2023-09-19T13:43:13;22.30;1.00
24217;DHT22;12356;49.386;8.688;2023-09-19T13:45:44;22.30;1.00
24217;DHT22;12356;49.386;8.688;2023-09-19T13:48:14;22.40;1.00
24217;DHT22;12356;49.386;8.688;2023-09-19T13:50:45;22.40;1.00
24217;DHT22;12356;49.386;8.688;2023-09-19T13:53:16;22.40;1.00
24217;DHT22;12356;49.386;8.688;2023-09-19T13:55:47;22.40;1.00
24217;DHT22;12356;49.386;8.688;2023-09-19T13:58:18;22.50;1.00
24217;DHT22;12356;49.386;8.688;2023-09-19T14:00:49;22.50;1.00
24217;DHT22;12356;49.386;8.688;2023-09-19T14:03:21;22.50;1.00
24217;DHT22;12356;49.386;8.688;2023-09-19T14:05:51;22.50;1.00
24217;DHT22;12356;49.386;8.688;2023-09-19T14:08:22;22.50;1.00
24217;DHT22;12356;49.386;8.688;2023-09-19T14:10:54;22.40;1.00
24217;DHT22;12356;49.386;8.688;2023-09-19T14:13:24;22.40;1.00
24217;DHT22;12356;49.386;8.688;2023-09-19T14:15:56;22.50;1.00
24217;DHT22;12356;49.386;8.688;2023-09-19T14:18:26;22.40;1.00
24217;DHT22;12356;49.386;8.688;2023-09-19T14:20:57;22.50;1.00
24217;DHT22;12356;49.386;8.688;2023-09-19T14:23:27;22.50;1.00
24217;DHT22;12356;49.386;8.688;2023-09-19T14:26:01;22.50;1.00
24217;DHT22;12356;49.386;8.688;2023-09-19T14:28:32;22.50;1.00
24217;DHT22;12356;49.386;8.688;2023-09-19T14:31:05;22.50;1.00
24217;DHT22;12356;49.386;8.688;2023-09-19T14:33:37;22.50;1.00
24217;DHT22;12356;49.386;8.688;2023-09-19T14:36:09;22.60;1.00
24217;DHT22;12356;49.386;8.688;2023-09-19T14:38:40;22.60;1.00
24217;DHT22;12356;49.386;8.688;2023-09-19T14:41:11;22.60;1.00
24217;DHT22;12356;49.386;8.688;2023-09-19T14:43:43;22.60;1.00
24217;DHT22;12356;49.386;8.688;2023-09-19T14:46:13;22.60;1.00
24217;DHT22;12356;49.386;8.688;2023-09-19T14:48:45;22.50;1.00
24217;DHT22;12356;49.386;8.688;2023-09-19T14:51:18;22.60;1.00
24217;DHT22;12356;49.386;8.688;2023-09-19T14:53:49;22.60;1.00
24217;DHT22;12356;49.386;8.688;2023-09-19T14:56:20;22.50;1.00
24217;DHT22;12356;49.386;8.688;2023-09-19T14:58:51;22.50;1.00
24217;DHT22;12356;49.386;8.688;2023-09-19T15:01:21;22.50;1.00
24217;DHT22;12356;49.386;8.688;2023-09-19T15:03:52;22.50;1.00
24217;DHT22;12356;49.386;8.688;2023-09-19T15:06:24;22.50;1.00
24217;DHT22;12356;49.386;8.688;2023-09-19T15:08:56;22.40;1.00
24217;DHT22;12356;49.386;8.688;2023-09-19T15:11:28;22.40;1.00
24217;DHT22;12356;49.386;8.688;2023-09-19T15:13:58;22.40;1.00
24217;DHT22;12356;49.386;8.688;2023-09-19T15:16:29;22.30;1.00
24217;DHT22;12356;49.386;8.688;2023-09-19T15:19:00;22.30;1.00
24217;DHT22;12356;49.386;8.688;2023-09-19T15:21:31;22.30;1.00
24217;DHT22;12356;49.386;8.688;2023-09-19T15:24:01;22.30;1.00
24217;DHT22;12356;49.386;8.688;2023-09-19T15:26:33;22.30;1.00
24217;DHT22;12356;49.386;8.688;2023-09-19T15:29:03;22.20;1.00
24217;DHT22;12356;49.386;8.688;2023-09-19T15:31:35;22.20;1.00
24217;DHT22;12356;49.386;8.688;2023-09-19T15:34:09;22.20;1.00
24217;DHT22;12356;49.386;8.688;2023-09-19T15:36:40;22.20;1.00
24217;DHT22;12356;49.386;8.688;2023-09-19T15:39:12;22.20;1.00
24217;DHT22;12356;49.386;8.688;2023-09-19T15:41:45;22.20;1.00
24217;DHT22;12356;49.386;8.688;2023-09-19T15:44:19;22.20;1.00
24217;DHT22;12356;49.386;8.688;2023-09-19T15:46:50;22.20;1.00
24217;DHT22;12356;49.386;8.688;2023-09-19T15:49:20;22.10;1.00
24217;DHT22;12356;49.386;8.688;2023-09-19T15:51:51;22.10;1.00
24217;DHT22;12356;49.386;8.688;2023-09-19T15:54:22;22.20;1.00
24217;DHT22;12356;49.386;8.688;2023-09-19T15:56:55;22.10;1.00
24217;DHT22;12356;49.386;8.688;2023-09-19T15:59:26;22.10;1.00
24217;DHT22;12356;49.386;8.688;2023-09-19T16:01:56;22.10;1.00
24217;DHT22;12356;49.386;8.688;2023-09-19T16:04:27;22.10;1.00
24217;DHT22;12356;49.386;8.688;2023-09-19T16:06:58;22.10;1.00
24217;DHT22;12356;49.386;8.688;2023-09-19T16:09:29;22.20;1.00
24217;DHT22;12356;49.386;8.688;2023-09-19T16:12:00;22.20;1.00
24217;DHT22;12356;49.386;8.688;2023-09-19T16:14:30;22.10;1.00
24217;DHT22;12356;49.386;8.688;2023-09-19T16:17:01;22.10;1.00
24217;DHT22;12356;49.386;8.688;2023-09-19T16:19:32;22.10;1.00
24217;DHT22;12356;49.386;8.688;2023-09-19T16:22:03;22.10;1.00
24217;DHT22;12356;49.386;8.688;2023-09-19T16:24:34;22.10;1.00
24217;DHT22;12356;49.386;8.688;2023-09-19T16:27:05;22.10;1.00
24217;DHT22;12356;49.386;8.688;2023-09-19T16:29:36;22.10;1.00
24217;DHT22;12356;49.386;8.688;2023-09-19T16:32:07;22.10;1.00
24217;DHT22;12356;49.386;8.688;2023-09-19T16:34:37;22.10;1.00
24217;DHT22;12356;49.386;8.688;2023-09-19T16:37:08;22.10;1.00
24217;DHT22;12356;49.386;8.688;2023-09-19T16:39:38;22.10;1.00
24217;DHT22;12356;49.386;8.688;2023-09-19T16:42:10;22.10;1.00
24217;DHT22;12356;49.386;8.688;2023-09-19T16:44:42;22.00;1.00
24217;DHT22;12356;49.386;8.688;2023-09-19T16:47:12;22.00;1.00
24217;DHT22;12356;49.386;8.688;2023-09-19T16:49:43;22.00;1.00
24217;DHT22;12356;49.386;8.688;2023-09-19T16:52:14;22.00;1.00
24217;DHT22;12356;49.386;8.688;2023-09-19T16:54:44;22.00;1.00
24217;DHT22;12356;49.386;8.688;2023-09-19T16:57:15;22.00;1.00